Time;durP1;ratioP1;P1;durP2;ratioP2;P2;SDS_P1;SDS_P2;PMS_P1;PMS_P2;Temp;Humidity;BMP_temperature;BMP_pressure;BME280_temperature;BME280_humidity;BME280_pressure;Samples;Min_cycle;Max_cycle;Signal;HPM_P1;HPM_P2
2023/12/13 00:01:25;;;;;;;0.27;0.27;;;4.00;99.90;;;;;;5034573;28;20505;-79
2023/12/13 00:03:51;;;;;;;0.30;0.30;;;4.00;99.90;;;;;;5032537;28;20187;-79
2023/12/13 00:06:16;;;;;;;0.30;0.30;;;4.00;99.90;;;;;;5032799;28;20256;-79
2023/12/13 00:08:42;;;;;;;0.20;0.20;;;4.00;99.90;;;;;;5031237;28;21135;-79
2023/12/13 00:11:08;;;;;;;0.30;0.30;;;4.00;99.90;;;;;;5035203;28;20198;-79
2023/12/13 00:13:34;;;;;;;0.30;0.30;;;4.00;99.90;;;;;;5043173;28;20561;-79
2023/12/13 00:16:00;;;;;;;0.30;0.30;;;4.00;99.90;;;;;;5041611;28;20244;-79
2023/12/13 00:18:26;;;;;;;0.27;0.27;;;4.00;99.90;;;;;;5030761;28;20437;-79
2023/12/13 00:20:52;;;;;;;0.30;0.30;;;4.00;99.90;;;;;;5038604;28;20430;-79
2023/12/13 00:23:18;;;;;;;0.30;0.30;;;4.00;99.90;;;;;;5047516;28;20197;-79
2023/12/13 00:25:43;;;;;;;0.30;0.30;;;4.00;99.90;;;;;;5045884;28;20550;-79
2023/12/13 00:28:09;;;;;;;0.30;0.30;;;4.10;99.90;;;;;;5044501;28;20192;-79
2023/12/13 00:30:34;;;;;;;0.30;0.30;;;4.10;99.90;;;;;;5034484;28;20233;-81
2023/12/13 00:33:00;;;;;;;0.30;0.30;;;4.00;99.90;;;;;;5043982;28;20253;-81
2023/12/13 00:35:25;;;;;;;0.20;0.20;;;4.00;99.90;;;;;;5048124;28;20190;-81
2023/12/13 00:37:51;;;;;;;0.30;0.30;;;4.10;99.90;;;;;;5033943;28;20226;-79
2023/12/13 00:40:18;;;;;;;0.27;0.27;;;4.10;99.90;;;;;;5043713;28;21057;-79
2023/12/13 00:42:44;;;;;;;0.30;0.30;;;4.10;99.90;;;;;;5035150;28;20244;-79
2023/12/13 00:45:10;;;;;;;0.20;0.20;;;4.10;99.90;;;;;;5045563;28;20434;-80
2023/12/13 00:47:35;;;;;;;0.30;0.30;;;4.10;99.90;;;;;;5044356;28;20213;-79
2023/12/13 00:50:01;;;;;;;0.27;0.27;;;4.10;99.90;;;;;;5033294;28;20190;-79
2023/12/13 00:52:26;;;;;;;0.30;0.30;;;4.10;99.90;;;;;;5045512;28;20629;-79
2023/12/13 00:54:52;;;;;;;0.30;0.30;;;4.10;99.90;;;;;;5038634;28;20195;-79
2023/12/13 00:57:18;;;;;;;0.30;0.30;;;4.10;99.90;;;;;;5038316;28;20623;-79
2023/12/13 00:59:43;;;;;;;0.30;0.30;;;4.10;99.90;;;;;;5031273;28;20293;-79
2023/12/13 01:02:09;;;;;;;0.30;0.30;;;4.10;99.90;;;;;;5040800;28;20179;-79
2023/12/13 01:04:36;;;;;;;0.30;0.30;;;4.10;99.90;;;;;;5049767;28;20678;-81
2023/12/13 01:07:02;;;;;;;0.30;0.30;;;4.20;99.90;;;;;;5033784;28;20265;-79
2023/12/13 01:09:28;;;;;;;0.20;0.20;;;4.10;99.90;;;;;;5031194;28;20528;-79
2023/12/13 01:11:53;;;;;;;0.30;0.30;;;4.10;99.90;;;;;;5044934;28;20665;-79
2023/12/13 01:14:19;;;;;;;0.20;0.20;;;4.10;99.90;;;;;;5040795;28;20712;-79
2023/12/13 01:16:44;;;;;;;0.30;0.30;;;4.10;99.90;;;;;;5035812;28;20206;-79
2023/12/13 01:19:10;;;;;;;0.30;0.30;;;4.10;99.90;;;;;;5038231;28;20228;-80
2023/12/13 01:21:36;;;;;;;0.30;0.30;;;4.10;99.90;;;;;;5024979;28;20187;-80
2023/12/13 01:24:02;;;;;;;0.30;0.30;;;4.20;99.90;;;;;;5039008;28;20203;-81
2023/12/13 01:26:28;;;;;;;0.30;0.30;;;4.10;99.90;;;;;;5013334;28;20180;-81
2023/12/13 01:28:53;;;;;;;0.30;0.30;;;4.10;99.90;;;;;;5010754;28;20832;-81
2023/12/13 01:31:19;;;;;;;0.30;0.30;;;4.10;99.90;;;;;;5029216;28;20517;-81
2023/12/13 01:33:45;;;;;;;0.30;0.30;;;4.10;99.90;;;;;;5025670;28;20214;-81
2023/12/13 01:36:10;;;;;;;0.27;0.27;;;4.10;99.90;;;;;;5028771;28;20671;-81
2023/12/13 01:38:36;;;;;;;0.30;0.30;;;4.10;99.90;;;;;;5024739;28;20199;-78
2023/12/13 01:41:02;;;;;;;0.30;0.30;;;4.10;99.90;;;;;;5014607;28;20183;-79
2023/12/13 01:43:29;;;;;;;0.30;0.30;;;4.10;99.90;;;;;;5023169;28;20283;-81
2023/12/13 01:45:57;;;;;;;0.30;0.30;;;4.10;99.90;;;;;;5003623;28;20434;-78
2023/12/13 01:48:25;;;;;;;0.30;0.30;;;4.10;99.90;;;;;;4998541;28;20435;-79
2023/12/13 01:50:52;;;;;;;0.30;0.30;;;4.10;99.90;;;;;;5026159;28;20498;-78
2023/12/13 01:53:19;;;;;;;0.33;0.33;;;4.10;99.90;;;;;;5015828;28;20479;-79
2023/12/13 01:55:45;;;;;;;0.20;0.20;;;4.10;99.90;;;;;;5017927;28;20409;-79
2023/12/13 01:58:12;;;;;;;0.30;0.30;;;4.10;99.90;;;;;;5028181;28;20425;-79
2023/12/13 02:00:40;;;;;;;0.30;0.30;;;4.10;99.90;;;;;;5028906;28;20418;-78
2023/12/13 02:03:08;;;;;;;0.30;0.30;;;4.10;99.90;;;;;;5035672;28;20428;-78
2023/12/13 02:05:35;;;;;;;0.30;0.30;;;4.10;99.90;;;;;;5010570;28;20419;-78
2023/12/13 02:08:02;;;;;;;0.30;0.30;;;4.10;99.90;;;;;;5012006;28;20581;-77
2023/12/13 02:10:27;;;;;;;0.30;0.30;;;4.10;99.90;;;;;;5021733;28;20433;-81
2023/12/13 02:12:53;;;;;;;0.30;0.30;;;4.10;99.90;;;;;;5021782;28;20470;-78
2023/12/13 02:15:20;;;;;;;0.30;0.30;;;4.10;99.90;;;;;;5020908;28;20211;-78
2023/12/13 02:17:54;;;;;;;0.30;0.30;;;4.10;99.90;;;;;;5014371;28;20188;-78
2023/12/13 02:20:20;;;;;;;0.30;0.30;;;4.10;99.90;;;;;;5038334;28;20463;-78
2023/12/13 02:22:46;;;;;;;0.30;0.30;;;4.10;99.90;;;;;;5015915;28;20473;-78
2023/12/13 02:25:15;;;;;;;0.20;0.20;;;4.10;99.90;;;;;;5032957;28;20431;-78
2023/12/13 02:27:44;;;;;;;0.20;0.20;;;4.10;99.90;;;;;;5014714;28;20211;-79
2023/12/13 02:30:10;;;;;;;0.30;0.30;;;4.10;99.90;;;;;;5032494;28;20430;-78
2023/12/13 02:32:39;;;;;;;0.27;0.27;;;4.10;99.90;;;;;;5044392;28;20472;-78
2023/12/13 02:35:05;;;;;;;0.30;0.30;;;4.10;99.90;;;;;;5041673;28;20441;-78
2023/12/13 02:37:31;;;;;;;0.30;0.30;;;4.10;99.90;;;;;;5032905;28;20437;-79
2023/12/13 02:39:58;;;;;;;0.30;0.30;;;4.10;99.90;;;;;;5030910;28;20824;-78
2023/12/13 02:42:25;;;;;;;0.30;0.30;;;4.10;99.90;;;;;;5014512;28;20207;-78
2023/12/13 02:44:51;;;;;;;0.20;0.20;;;4.10;99.90;;;;;;5051475;28;20468;-78
2023/12/13 02:47:16;;;;;;;0.30;0.30;;;4.10;99.90;;;;;;5041165;28;20426;-79
2023/12/13 02:49:42;;;;;;;0.30;0.30;;;4.10;99.90;;;;;;5028817;28;20450;-78
2023/12/13 02:52:07;;;;;;;0.30;0.30;;;4.10;99.90;;;;;;5036867;28;20194;-78
2023/12/13 02:54:33;;;;;;;0.27;0.27;;;4.10;99.90;;;;;;5031253;28;20238;-78
2023/12/13 02:56:58;;;;;;;0.30;0.30;;;4.10;99.90;;;;;;5051279;28;20285;-78
2023/12/13 02:59:24;;;;;;;0.30;0.30;;;4.10;99.90;;;;;;5032620;28;20187;-81
2023/12/13 03:01:49;;;;;;;0.30;0.30;;;4.10;99.90;;;;;;5032636;28;20189;-81
2023/12/13 03:04:15;;;;;;;0.30;0.30;;;4.10;99.90;;;;;;5032382;28;20187;-81
2023/12/13 03:06:40;;;;;;;0.30;0.30;;;4.10;99.90;;;;;;5041778;28;20269;-81
2023/12/13 03:09:06;;;;;;;0.30;0.30;;;4.10;99.90;;;;;;5050702;28;20178;-81
2023/12/13 03:11:31;;;;;;;0.20;0.20;;;4.10;99.90;;;;;;5025409;28;20171;-78
2023/12/13 03:13:57;;;;;;;0.30;0.30;;;4.10;99.90;;;;;;5048308;28;20259;-79
2023/12/13 03:16:24;;;;;;;0.30;0.30;;;4.10;99.90;;;;;;5020530;28;20179;-78
2023/12/13 03:18:49;;;;;;;0.30;0.30;;;4.10;99.90;;;;;;5026745;28;20217;-79
2023/12/13 03:21:15;;;;;;;0.30;0.30;;;4.10;99.90;;;;;;4996632;28;20490;-78
2023/12/13 03:23:40;;;;;;;0.30;0.30;;;4.10;99.90;;;;;;5003844;28;20192;-79
2023/12/13 03:26:06;;;;;;;0.20;0.20;;;4.10;99.90;;;;;;4999536;28;20520;-78
2023/12/13 03:28:31;;;;;;;0.30;0.30;;;4.10;99.90;;;;;;5007729;28;20192;-79
2023/12/13 03:30:57;;;;;;;0.30;0.30;;;4.10;99.90;;;;;;4993611;28;20191;-78
2023/12/13 03:33:23;;;;;;;0.30;0.30;;;4.10;99.90;;;;;;5007019;28;20863;-78
2023/12/13 03:35:48;;;;;;;0.23;0.23;;;4.10;99.90;;;;;;5007510;28;20188;-78
2023/12/13 03:38:14;;;;;;;0.23;0.23;;;4.10;99.90;;;;;;5005454;28;20196;-79
2023/12/13 03:40:40;;;;;;;0.30;0.30;;;4.10;99.90;;;;;;4997409;28;20195;-79
2023/12/13 03:43:06;;;;;;;0.30;0.30;;;4.10;99.90;;;;;;5006663;28;20173;-78
2023/12/13 03:45:31;;;;;;;0.30;0.30;;;4.10;99.90;;;;;;5005562;28;20185;-79
2023/12/13 03:47:57;;;;;;;0.30;0.30;;;4.10;99.90;;;;;;5009198;28;20434;-79
2023/12/13 03:50:23;;;;;;;0.30;0.30;;;4.10;99.90;;;;;;5004482;28;20271;-81
2023/12/13 03:52:48;;;;;;;0.30;0.30;;;4.00;99.90;;;;;;5011458;28;20216;-81
2023/12/13 03:55:14;;;;;;;0.30;0.30;;;4.00;99.90;;;;;;5006910;28;20207;-81
2023/12/13 03:57:39;;;;;;;0.30;0.30;;;4.10;99.90;;;;;;5004328;28;20189;-81
2023/12/13 04:00:06;;;;;;;0.30;0.30;;;4.10;99.90;;;;;;4994738;28;20208;-81
2023/12/13 04:02:32;;;;;;;0.20;0.20;;;4.10;99.90;;;;;;4996532;28;20189;-79
2023/12/13 04:04:58;;;;;;;0.20;0.20;;;4.10;99.90;;;;;;4996914;28;20431;-79
2023/12/13 04:07:23;;;;;;;0.30;0.30;;;4.10;99.90;;;;;;4992276;28;20716;-79
2023/12/13 04:09:49;;;;;;;0.30;0.30;;;4.10;99.90;;;;;;4993471;28;20691;-79
2023/12/13 04:12:15;;;;;;;0.20;0.20;;;4.10;99.90;;;;;;4991768;28;20181;-79
2023/12/13 04:14:41;;;;;;;0.23;0.23;;;4.10;99.90;;;;;;5000884;28;20196;-79
2023/12/13 04:17:06;;;;;;;0.30;0.30;;;4.10;99.90;;;;;;4994246;28;20428;-79
2023/12/13 04:19:32;;;;;;;0.30;0.30;;;4.10;99.90;;;;;;5013409;28;20235;-79
2023/12/13 04:21:57;;;;;;;0.30;0.30;;;4.10;99.90;;;;;;5041812;28;20281;-81
2023/12/13 04:24:23;;;;;;;0.30;0.30;;;4.10;99.90;;;;;;5037990;28;20191;-81
2023/12/13 04:26:48;;;;;;;0.30;0.30;;;4.10;99.90;;;;;;5011713;28;20557;-81
2023/12/13 04:29:14;;;;;;;0.30;0.30;;;4.10;99.90;;;;;;5031279;28;20190;-82
2023/12/13 04:31:41;;;;;;;0.30;0.30;;;4.10;99.90;;;;;;5044013;28;20202;-82
2023/12/13 04:34:06;;;;;;;0.30;0.30;;;4.10;99.90;;;;;;5030439;28;20214;-82
2023/12/13 04:36:33;;;;;;;0.30;0.30;;;4.10;99.90;;;;;;5035031;28;20441;-82
2023/12/13 04:38:59;;;;;;;0.20;0.20;;;4.10;99.90;;;;;;5047804;28;20425;-79
2023/12/13 04:41:24;;;;;;;0.30;0.30;;;4.10;99.90;;;;;;5045981;28;20198;-79
2023/12/13 04:43:50;;;;;;;0.30;0.30;;;4.10;99.90;;;;;;5010065;28;20194;-79
2023/12/13 04:46:16;;;;;;;0.30;0.30;;;4.10;99.90;;;;;;5045456;28;20273;-79
2023/12/13 04:48:41;;;;;;;0.20;0.20;;;4.10;99.90;;;;;;5040630;28;20185;-79
2023/12/13 04:51:07;;;;;;;0.30;0.30;;;4.10;99.90;;;;;;5033486;28;20839;-82
2023/12/13 04:53:32;;;;;;;0.30;0.30;;;4.10;99.90;;;;;;5011119;28;20606;-79
2023/12/13 04:55:58;;;;;;;0.23;0.23;;;4.10;99.90;;;;;;5027255;28;20429;-79
2023/12/13 04:58:24;;;;;;;0.30;0.30;;;4.10;99.90;;;;;;5042640;28;20187;-79
2023/12/13 05:00:49;;;;;;;0.20;0.20;;;4.10;99.90;;;;;;5043054;28;20175;-79
2023/12/13 05:03:15;;;;;;;0.30;0.30;;;4.10;99.90;;;;;;5044600;28;20198;-82
2023/12/13 05:05:41;;;;;;;0.20;0.20;;;4.10;99.90;;;;;;5017751;28;20191;-82
2023/12/13 05:08:12;;;;;;;0.30;0.30;;;4.10;99.90;;;;;;5030286;28;20543;-82
2023/12/13 05:10:40;;;;;;;0.30;0.30;;;4.10;99.90;;;;;;5038601;28;20186;-79
2023/12/13 05:13:07;;;;;;;0.30;0.30;;;4.10;99.90;;;;;;5012352;28;20461;-79
2023/12/13 05:15:32;;;;;;;0.30;0.30;;;4.10;99.90;;;;;;5015329;28;20492;-79
2023/12/13 05:17:58;;;;;;;0.30;0.30;;;4.10;99.90;;;;;;5043750;28;20918;-79
2023/12/13 05:20:23;;;;;;;0.30;0.30;;;4.10;99.90;;;;;;5006467;28;20298;-79
2023/12/13 05:22:49;;;;;;;0.30;0.30;;;4.10;99.90;;;;;;5025475;28;20621;-79
2023/12/13 05:25:14;;;;;;;0.30;0.30;;;4.10;99.90;;;;;;5029792;28;20190;-80
2023/12/13 05:27:42;;;;;;;0.30;0.30;;;4.10;99.90;;;;;;5028875;28;21600;-79
2023/12/13 05:30:08;;;;;;;0.30;0.30;;;4.10;99.90;;;;;;5016594;28;20196;-79
2023/12/13 05:32:34;;;;;;;0.23;0.23;;;4.00;99.90;;;;;;5024379;28;20429;-79
2023/12/13 05:35:00;;;;;;;0.23;0.23;;;4.00;99.90;;;;;;5024376;28;20434;-79
2023/12/13 05:37:25;;;;;;;0.30;0.30;;;4.00;99.90;;;;;;5018713;28;20438;-79
2023/12/13 05:39:51;;;;;;;0.33;0.33;;;4.00;99.90;;;;;;5006890;28;20569;-79
2023/12/13 05:42:17;;;;;;;0.37;0.37;;;4.00;99.90;;;;;;5026400;28;20175;-79
2023/12/13 05:44:42;;;;;;;0.30;0.30;;;4.10;99.90;;;;;;5005693;28;20220;-79
2023/12/13 05:47:08;;;;;;;0.30;0.30;;;4.10;99.90;;;;;;4988455;28;20193;-79
2023/12/13 05:49:33;;;;;;;0.30;0.30;;;4.00;99.90;;;;;;5002967;28;20197;-82
2023/12/13 05:51:59;;;;;;;0.30;0.30;;;4.10;99.90;;;;;;4998981;28;20704;-82
2023/12/13 05:54:24;;;;;;;0.30;0.30;;;4.00;99.90;;;;;;5009373;28;20244;-79
2023/12/13 05:56:50;;;;;;;0.30;0.30;;;4.00;99.90;;;;;;5009882;28;20227;-80
2023/12/13 05:59:15;;;;;;;0.20;0.20;;;4.10;99.90;;;;;;5004449;28;20192;-79
2023/12/13 06:01:41;;;;;;;0.30;0.30;;;4.00;99.90;;;;;;4999222;28;20189;-79
2023/12/13 06:04:06;;;;;;;0.30;0.30;;;4.00;99.90;;;;;;5023465;28;20242;-79
2023/12/13 06:06:32;;;;;;;0.30;0.30;;;4.00;99.90;;;;;;5027296;28;20180;-80
2023/12/13 06:08:58;;;;;;;0.30;0.30;;;4.00;99.90;;;;;;5026724;28;20779;-80
2023/12/13 06:11:24;;;;;;;0.40;0.40;;;4.00;99.90;;;;;;5009786;28;20179;-79
2023/12/13 06:13:49;;;;;;;0.27;0.27;;;4.00;99.90;;;;;;5028148;28;20208;-80
2023/12/13 06:16:15;;;;;;;0.30;0.30;;;4.00;99.90;;;;;;5022186;28;21084;-79
2023/12/13 06:18:40;;;;;;;0.27;0.27;;;4.00;99.90;;;;;;5019620;28;20664;-82
2023/12/13 06:21:07;;;;;;;0.30;0.30;;;4.00;99.90;;;;;;4988929;28;20263;-80
2023/12/13 06:23:33;;;;;;;0.30;0.30;;;4.00;99.90;;;;;;5000241;28;20236;-80
2023/12/13 06:25:58;;;;;;;0.30;0.30;;;4.00;99.90;;;;;;4987114;28;20431;-80
2023/12/13 06:28:24;;;;;;;0.30;0.30;;;3.90;99.90;;;;;;4990121;28;20904;-81
2023/12/13 06:30:49;;;;;;;0.30;0.30;;;3.90;99.90;;;;;;4977341;28;20220;-81
2023/12/13 06:33:18;;;;;;;0.30;0.30;;;4.00;99.90;;;;;;4998839;28;20573;-81
2023/12/13 06:35:44;;;;;;;0.30;0.30;;;3.90;99.90;;;;;;4994180;28;20256;-80
2023/12/13 06:38:09;;;;;;;0.30;0.30;;;4.00;99.90;;;;;;4992887;28;20448;-80
2023/12/13 06:40:35;;;;;;;0.30;0.30;;;4.00;99.90;;;;;;4996700;28;20619;-80
2023/12/13 06:43:00;;;;;;;0.30;0.30;;;4.00;99.90;;;;;;4995303;28;20204;-80
2023/12/13 06:45:26;;;;;;;0.30;0.30;;;4.00;99.90;;;;;;5003712;28;20220;-80
2023/12/13 06:47:51;;;;;;;0.30;0.30;;;4.00;99.90;;;;;;4991523;28;20692;-80
2023/12/13 06:50:17;;;;;;;0.30;0.30;;;4.00;99.90;;;;;;4995423;28;20216;-80
2023/12/13 06:52:44;;;;;;;0.30;0.30;;;4.00;99.90;;;;;;5003419;28;20315;-80
2023/12/13 06:55:10;;;;;;;0.30;0.30;;;4.00;99.90;;;;;;4991177;28;20197;-80
2023/12/13 06:57:35;;;;;;;0.30;0.30;;;4.00;99.90;;;;;;5004659;28;20431;-80
2023/12/13 07:00:02;;;;;;;0.30;0.30;;;4.00;99.90;;;;;;4998255;28;20446;-80
2023/12/13 07:02:27;;;;;;;0.27;0.27;;;4.00;99.90;;;;;;5002288;28;20188;-80
2023/12/13 07:04:53;;;;;;;0.30;0.30;;;4.00;99.90;;;;;;4999463;28;20432;-81
2023/12/13 07:07:18;;;;;;;0.30;0.30;;;4.00;99.90;;;;;;5003609;28;20177;-79
2023/12/13 07:09:45;;;;;;;0.30;0.30;;;4.00;99.90;;;;;;5010197;28;20554;-79
2023/12/13 07:12:11;;;;;;;0.30;0.30;;;4.00;99.90;;;;;;4994335;28;20228;-79
2023/12/13 07:14:36;;;;;;;0.30;0.30;;;4.00;99.90;;;;;;4998214;28;20506;-80
2023/12/13 07:17:03;;;;;;;0.40;0.40;;;4.00;99.90;;;;;;5006533;28;20181;-79
2023/12/13 07:19:29;;;;;;;0.30;0.30;;;4.00;99.90;;;;;;5010997;28;20250;-79
2023/12/13 07:21:55;;;;;;;0.30;0.30;;;4.00;99.90;;;;;;5013903;28;20922;-79
2023/12/13 07:24:20;;;;;;;0.30;0.30;;;4.00;99.90;;;;;;5015063;28;20188;-79
2023/12/13 07:26:46;;;;;;;0.30;0.30;;;4.00;99.90;;;;;;5013264;28;20176;-79
2023/12/13 07:29:12;;;;;;;0.30;0.30;;;4.00;99.90;;;;;;5014289;28;20690;-79
2023/12/13 07:31:41;;;;;;;0.30;0.30;;;4.00;99.90;;;;;;5023643;28;20522;-82
2023/12/13 07:34:08;;;;;;;0.30;0.30;;;4.00;99.90;;;;;;5031658;28;20258;-81
2023/12/13 07:36:34;;;;;;;0.30;0.30;;;3.90;99.90;;;;;;5023638;28;20442;-81
2023/12/13 07:39:00;;;;;;;0.30;0.30;;;4.00;99.90;;;;;;5032895;28;20453;-79
2023/12/13 07:41:25;;;;;;;0.30;0.30;;;4.00;99.90;;;;;;5046141;28;20429;-79
2023/12/13 07:43:52;;;;;;;0.30;0.30;;;4.00;99.90;;;;;;5034652;28;20596;-79
2023/12/13 07:46:18;;;;;;;0.27;0.27;;;4.10;99.90;;;;;;5042286;28;20179;-80
2023/12/13 07:48:43;;;;;;;0.30;0.30;;;4.00;99.90;;;;;;5017460;28;20461;-79
2023/12/13 07:51:09;;;;;;;0.30;0.30;;;4.00;99.90;;;;;;5036847;28;20533;-78
2023/12/13 07:53:36;;;;;;;0.30;0.30;;;4.00;99.90;;;;;;5024750;28;20571;-78
2023/12/13 07:56:01;;;;;;;0.27;0.27;;;4.00;99.90;;;;;;5027461;28;20194;-79
2023/12/13 07:58:27;;;;;;;0.30;0.30;;;4.00;99.90;;;;;;5034041;28;21104;-78
2023/12/13 08:00:52;;;;;;;0.30;0.30;;;4.00;99.90;;;;;;5015388;28;20181;-79
2023/12/13 08:03:18;;;;;;;0.30;0.30;;;4.00;99.90;;;;;;5027412;28;20274;-78
2023/12/13 08:05:43;;;;;;;0.30;0.30;;;4.00;99.90;;;;;;5030061;28;20238;-79
2023/12/13 08:08:09;;;;;;;0.20;0.20;;;4.00;99.90;;;;;;5031188;28;20671;-79
2023/12/13 08:10:35;;;;;;;0.30;0.30;;;4.00;99.90;;;;;;5032750;28;20188;-78
2023/12/13 08:13:00;;;;;;;0.30;0.30;;;4.00;99.90;;;;;;5030708;28;20203;-80
2023/12/13 08:15:26;;;;;;;0.30;0.30;;;4.00;99.90;;;;;;5012680;28;20674;-81
2023/12/13 08:17:53;;;;;;;0.30;0.30;;;4.00;99.90;;;;;;5030768;28;20299;-79
2023/12/13 08:20:18;;;;;;;0.20;0.20;;;4.00;99.90;;;;;;5029674;28;20585;-80
2023/12/13 08:22:44;;;;;;;0.30;0.30;;;4.00;99.90;;;;;;5026207;28;20191;-80
2023/12/13 08:25:09;;;;;;;0.20;0.20;;;4.00;99.90;;;;;;5026439;28;20186;-80
2023/12/13 08:27:35;;;;;;;0.23;0.23;;;4.00;99.90;;;;;;5013215;28;20640;-80
2023/12/13 08:30:00;;;;;;;0.30;0.30;;;4.00;99.90;;;;;;5025448;28;20187;-80
2023/12/13 08:32:27;;;;;;;0.30;0.30;;;4.00;99.90;;;;;;5028533;28;20194;-80
2023/12/13 08:34:53;;;;;;;0.30;0.30;;;4.00;99.90;;;;;;5025559;28;20196;-80
2023/12/13 08:37:21;;;;;;;0.40;0.40;;;4.00;99.90;;;;;;5018418;28;20964;-79
2023/12/13 08:39:48;;;;;;;0.20;0.20;;;4.00;99.90;;;;;;5023365;28;20434;-79
2023/12/13 08:42:16;;;;;;;0.30;0.30;;;4.00;99.90;;;;;;5023666;28;20518;-80
2023/12/13 08:44:43;;;;;;;0.30;0.30;;;4.00;99.90;;;;;;5032649;28;20506;-79
2023/12/13 08:47:08;;;;;;;0.30;0.30;;;4.00;99.90;;;;;;5028182;28;20533;-79
2023/12/13 08:49:34;;;;;;;0.30;0.30;;;4.10;99.90;;;;;;5034664;28;20445;-79
2023/12/13 08:51:59;;;;;;;0.30;0.30;;;4.00;99.90;;;;;;5039376;28;20230;-79
2023/12/13 08:54:25;;;;;;;0.30;0.30;;;4.10;99.90;;;;;;5029079;28;20223;-79
2023/12/13 08:56:51;;;;;;;0.30;0.30;;;4.10;99.90;;;;;;5025840;28;20193;-81
2023/12/13 08:59:16;;;;;;;0.20;0.20;;;4.00;99.90;;;;;;5011300;28;20970;-77
2023/12/13 09:01:42;;;;;;;0.30;0.30;;;4.00;99.90;;;;;;5026191;28;20195;-78
2023/12/13 09:04:08;;;;;;;0.30;0.30;;;4.10;99.90;;;;;;5024864;28;20203;-76
2023/12/13 09:06:33;;;;;;;0.20;0.20;;;4.10;99.90;;;;;;5028865;28;20442;-75
2023/12/13 09:08:59;;;;;;;0.30;0.30;;;4.10;99.90;;;;;;5004637;28;20187;-78
2023/12/13 09:11:24;;;;;;;0.30;0.30;;;4.10;99.90;;;;;;5013756;28;20206;-75
2023/12/13 09:13:50;;;;;;;0.30;0.30;;;4.10;99.90;;;;;;5017698;28;20639;-82
2023/12/13 09:16:16;;;;;;;0.30;0.30;;;4.10;99.90;;;;;;5027850;28;20723;-79
2023/12/13 09:18:44;;;;;;;0.30;0.30;;;4.10;99.90;;;;;;5029717;28;20218;-81
2023/12/13 09:21:10;;;;;;;0.40;0.40;;;4.10;99.90;;;;;;5026131;28;20453;-79
2023/12/13 09:23:36;;;;;;;0.30;0.30;;;4.10;99.90;;;;;;5019641;28;20431;-81
2023/12/13 09:26:04;;;;;;;0.20;0.20;;;4.10;99.90;;;;;;5023520;28;20262;-79
2023/12/13 09:28:29;;;;;;;0.30;0.30;;;4.10;99.90;;;;;;5019957;28;20171;-83
2023/12/13 09:30:55;;;;;;;0.30;0.30;;;4.10;99.90;;;;;;5009822;28;20503;-80
2023/12/13 09:33:20;;;;;;;0.30;0.30;;;4.10;99.90;;;;;;5029455;28;20227;-79
2023/12/13 09:35:46;;;;;;;0.30;0.30;;;4.20;99.90;;;;;;5029344;28;20214;-82
2023/12/13 09:38:11;;;;;;;0.30;0.30;;;4.10;99.90;;;;;;5026314;28;20191;-83
2023/12/13 09:40:37;;;;;;;0.30;0.30;;;4.10;99.90;;;;;;5027629;28;20659;-82
2023/12/13 09:43:03;;;;;;;0.30;0.30;;;4.20;99.90;;;;;;5010175;28;20195;-81
2023/12/13 09:45:31;;;;;;;0.30;0.30;;;4.20;99.90;;;;;;5025309;28;20188;-81
2023/12/13 09:47:57;;;;;;;0.30;0.30;;;4.10;99.90;;;;;;5025587;28;20423;-81
2023/12/13 09:50:23;;;;;;;0.30;0.30;;;4.20;99.90;;;;;;4997246;28;20607;-81
2023/12/13 09:52:50;;;;;;;0.30;0.30;;;4.20;99.90;;;;;;5018576;28;20974;-82
2023/12/13 09:55:16;;;;;;;0.20;0.20;;;4.20;99.90;;;;;;5022242;28;20468;-81
2023/12/13 09:57:41;;;;;;;0.30;0.30;;;4.20;99.90;;;;;;5024421;28;20449;-81
2023/12/13 10:00:07;;;;;;;0.30;0.30;;;4.20;99.90;;;;;;5023520;28;20230;-81
2023/12/13 10:02:33;;;;;;;0.27;0.27;;;4.20;99.90;;;;;;5000040;28;20844;-81
2023/12/13 10:04:59;;;;;;;0.37;0.37;;;4.20;99.90;;;;;;5020296;28;20559;-81
2023/12/13 10:07:27;;;;;;;0.30;0.30;;;4.20;99.90;;;;;;4993393;28;20184;-79
2023/12/13 10:09:55;;;;;;;0.20;0.20;;;4.20;99.90;;;;;;5022060;28;20192;-79
2023/12/13 10:12:21;;;;;;;0.30;0.30;;;4.20;99.90;;;;;;5022449;28;20426;-79
2023/12/13 10:14:47;;;;;;;0.30;0.30;;;4.20;99.90;;;;;;5006315;28;20479;-79
2023/12/13 10:17:12;;;;;;;0.30;0.30;;;4.20;99.90;;;;;;5021731;28;20473;-79
2023/12/13 10:19:38;;;;;;;0.30;0.30;;;4.20;99.90;;;;;;5018247;28;20573;-79
2023/12/13 10:22:05;;;;;;;0.40;0.40;;;4.20;99.90;;;;;;5024731;28;20314;-79
2023/12/13 10:24:31;;;;;;;0.30;0.30;;;4.20;99.90;;;;;;5023812;28;20185;-79
2023/12/13 10:26:57;;;;;;;0.30;0.30;;;4.10;99.90;;;;;;5029921;28;20513;-79
2023/12/13 10:29:23;;;;;;;0.20;0.20;;;4.10;99.90;;;;;;5026946;28;20559;-78
2023/12/13 10:31:49;;;;;;;0.30;0.30;;;4.20;99.90;;;;;;5025973;28;20187;-79
2023/12/13 10:34:15;;;;;;;0.30;0.30;;;4.10;99.90;;;;;;5019952;28;20475;-78
2023/12/13 10:36:40;;;;;;;0.30;0.30;;;4.20;99.90;;;;;;5026971;28;20183;-79
2023/12/13 10:39:07;;;;;;;0.30;0.30;;;4.20;99.90;;;;;;5029708;28;20195;-79
2023/12/13 10:41:36;;;;;;;0.30;0.30;;;4.20;99.90;;;;;;5008481;28;20187;-79
2023/12/13 10:44:03;;;;;;;0.30;0.30;;;4.20;99.90;;;;;;5029766;28;20458;-79
2023/12/13 10:46:35;;;;;;;0.30;0.30;;;4.20;99.90;;;;;;5024702;28;20850;-79
2023/12/13 10:49:03;;;;;;;0.27;0.27;;;4.20;99.90;;;;;;5024988;28;20448;-79
2023/12/13 10:51:31;;;;;;;0.30;0.30;;;4.10;99.90;;;;;;5033016;28;20434;-79
2023/12/13 10:53:58;;;;;;;0.33;0.33;;;4.10;99.90;;;;;;5012449;28;20490;-79
2023/12/13 10:56:23;;;;;;;0.30;0.30;;;4.10;99.90;;;;;;5009898;28;20558;-79
2023/12/13 10:58:50;;;;;;;0.30;0.30;;;4.10;99.90;;;;;;5024462;28;20537;-79
2023/12/13 11:01:17;;;;;;;0.30;0.30;;;4.10;99.90;;;;;;5011533;28;20745;-79
2023/12/13 11:03:57;;;;;;;0.30;0.30;;;4.10;99.90;;;;;;5013342;28;20481;-79
2023/12/13 11:06:22;;;;;;;0.30;0.30;;;4.10;99.90;;;;;;5028276;28;20536;-79
2023/12/13 11:08:48;;;;;;;0.30;0.30;;;4.10;99.90;;;;;;5030792;28;20493;-80
2023/12/13 11:11:16;;;;;;;0.30;0.30;;;4.10;99.90;;;;;;5012399;28;20333;-79
2023/12/13 11:13:50;;;;;;;0.30;0.30;;;4.10;99.90;;;;;;5010704;28;20231;-78
2023/12/13 11:16:23;;;;;;;0.30;0.30;;;4.00;99.90;;;;;;5025298;28;20529;-79
2023/12/13 11:18:52;;;;;;;0.30;0.30;;;4.10;99.90;;;;;;5026000;28;20496;-78
2023/12/13 11:21:26;;;;;;;0.30;0.30;;;4.00;99.90;;;;;;5006937;28;20549;-82
2023/12/13 11:23:52;;;;;;;0.30;0.30;;;4.10;99.90;;;;;;5001391;28;20442;-81
2023/12/13 11:26:24;;;;;;;0.30;0.30;;;4.10;99.90;;;;;;5002865;28;20457;-81
2023/12/13 11:28:52;;;;;;;0.30;0.30;;;4.00;99.90;;;;;;5019645;28;20938;-81
2023/12/13 11:31:25;;;;;;;0.30;0.30;;;4.00;99.90;;;;;;5024385;28;20461;-82
2023/12/13 11:33:54;;;;;;;0.23;0.23;;;4.00;99.90;;;;;;5021923;28;20572;-81
2023/12/13 11:36:21;;;;;;;0.30;0.30;;;4.00;99.90;;;;;;5030018;28;20446;-81
2023/12/13 11:38:50;;;;;;;0.20;0.20;;;4.00;99.90;;;;;;5026368;28;20533;-82
2023/12/13 11:41:17;;;;;;;0.30;0.30;;;4.00;99.90;;;;;;5013570;28;20958;-81
2023/12/13 11:43:43;;;;;;;0.27;0.27;;;4.00;99.90;;;;;;5023976;28;20451;-82
2023/12/13 11:46:09;;;;;;;0.30;0.30;;;4.00;99.90;;;;;;5026553;28;20435;-81
2023/12/13 11:48:35;;;;;;;0.30;0.30;;;4.00;99.90;;;;;;5014571;28;20489;-81
2023/12/13 11:51:01;;;;;;;0.30;0.30;;;4.00;99.90;;;;;;5013437;28;20423;-80
2023/12/13 11:53:27;;;;;;;0.30;0.30;;;4.00;99.90;;;;;;5029983;28;20477;-81
2023/12/13 11:55:52;;;;;;;0.30;0.30;;;3.90;99.90;;;;;;5031531;28;20682;-80
2023/12/13 11:58:18;;;;;;;0.20;0.20;;;3.90;99.90;;;;;;5028553;28;20191;-81
2023/12/13 12:00:43;;;;;;;0.30;0.30;;;3.90;99.90;;;;;;5021358;28;20196;-81
2023/12/13 12:03:09;;;;;;;0.20;0.20;;;3.90;99.90;;;;;;5029683;28;20198;-80
2023/12/13 12:05:35;;;;;;;0.30;0.30;;;4.00;99.90;;;;;;5028887;28;20750;-80
2023/12/13 12:08:06;;;;;;;0.20;0.20;;;4.00;99.90;;;;;;5026725;28;20509;-80
2023/12/13 12:10:32;;;;;;;0.30;0.30;;;4.00;99.90;;;;;;5019540;28;20856;-80
2023/12/13 12:13:03;;;;;;;0.30;0.30;;;3.90;99.90;;;;;;5022232;28;20705;-80
2023/12/13 12:15:30;;;;;;;0.20;0.20;;;4.00;99.90;;;;;;5025003;28;20469;-81
2023/12/13 12:17:56;;;;;;;0.30;0.30;;;4.00;99.90;;;;;;5028746;28;20533;-80
2023/12/13 12:20:23;;;;;;;0.30;0.30;;;4.00;99.90;;;;;;5028781;28;20679;-80
2023/12/13 12:22:49;;;;;;;0.30;0.30;;;4.00;99.90;;;;;;5051111;28;20189;-81
2023/12/13 12:25:14;;;;;;;0.30;0.30;;;4.00;99.90;;;;;;5036548;28;20427;-81
2023/12/13 12:27:49;;;;;;;0.30;0.30;;;3.90;99.90;;;;;;5030016;28;20183;-82
2023/12/13 12:30:18;;;;;;;0.30;0.30;;;4.00;99.90;;;;;;5030700;28;20251;-82
2023/12/13 12:32:44;;;;;;;0.30;0.30;;;4.00;99.90;;;;;;5012151;28;21038;-82
2023/12/13 12:35:10;;;;;;;0.30;0.30;;;4.00;99.90;;;;;;5031203;28;20431;-82
2023/12/13 12:37:37;;;;;;;0.30;0.30;;;4.00;99.90;;;;;;5037460;28;20422;-82
2023/12/13 12:40:06;;;;;;;0.30;0.30;;;3.90;99.90;;;;;;5034646;28;20266;-83
2023/12/13 12:42:33;;;;;;;0.30;0.30;;;3.90;99.90;;;;;;5046826;28;20464;-82
2023/12/13 12:44:59;;;;;;;0.30;0.30;;;3.90;99.90;;;;;;5011245;28;20461;-81
2023/12/13 12:47:24;;;;;;;0.37;0.37;;;3.90;99.90;;;;;;5029559;28;20457;-80
2023/12/13 12:49:52;;;;;;;0.20;0.20;;;3.90;99.90;;;;;;5028993;28;20670;-82
2023/12/13 12:52:21;;;;;;;0.30;0.30;;;3.90;99.90;;;;;;5021038;28;20618;-82